Terminal Aerodrome Forecast
Issued by NWS

Home | Current Version | Previous Version | Text Only | Print | Product List | Glossary On
Versions: 1 2 3 4 5 6 7 8 9 10 11 12 13 14 15 16 17 18 19 20 21 22 23 24 25 26 27 28 29 30 31 32
525
FTUS44 KFWD 171449 AAA
TAFDAL
TAF AMD
KDAL 171449Z 1715/1812 35009KT P6SM SCT070 BKN250
     FM171900 01008KT P6SM VCSH SCT030 OVC050
     FM172200 01007KT 6SM -RA BKN035 OVC050
     FM180200 01007KT 5SM -RA BR OVC015
     FM180500 01008KT 4SM -RA BR OVC008=

USA.gov is the U.S. government's official web portal to all federal, state and local government web resources and services.